sensor_id;sensor_type;location;lat;lon;timestamp;pressure;altitude;pressure_sealevel;temperature;humidity
43298;BME280;28892;55.640;37.532;2023-06-26T00:01:32;98661.75;;;19.74;49.46
43298;BME280;28892;55.640;37.532;2023-06-26T00:03:59;98659.69;;;19.81;49.01
43298;BME280;28892;55.640;37.532;2023-06-26T00:06:26;98661.59;;;19.86;49.55
43298;BME280;28892;55.640;37.532;2023-06-26T00:08:55;98665.66;;;19.89;50.21
43298;BME280;28892;55.640;37.532;2023-06-26T00:11:21;98651.59;;;19.81;49.93
43298;BME280;28892;55.640;37.532;2023-06-26T00:13:48;98655.69;;;19.84;49.72
43298;BME280;28892;55.640;37.532;2023-06-26T00:16:16;98666.72;;;19.88;49.95
43298;BME280;28892;55.640;37.532;2023-06-26T00:18:42;98654.31;;;19.87;50.19
43298;BME280;28892;55.640;37.532;2023-06-26T00:21:08;98660.75;;;19.80;49.99
43298;BME280;28892;55.640;37.532;2023-06-26T00:23:34;98651.34;;;19.83;49.63
43298;BME280;28892;55.640;37.532;2023-06-26T00:26:03;98649.72;;;19.82;49.86
43298;BME280;28892;55.640;37.532;2023-06-26T00:28:29;98643.78;;;19.80;49.73
43298;BME280;28892;55.640;37.532;2023-06-26T00:30:57;98645.47;;;19.91;49.69
43298;BME280;28892;55.640;37.532;2023-06-26T00:33:22;98647.72;;;19.94;50.25
43298;BME280;28892;55.640;37.532;2023-06-26T00:35:50;98642.06;;;19.96;49.88
43298;BME280;28892;55.640;37.532;2023-06-26T00:38:18;98647.25;;;20.08;48.69
43298;BME280;28892;55.640;37.532;2023-06-26T00:40:44;98634.28;;;20.00;49.77
43298;BME280;28892;55.640;37.532;2023-06-26T00:43:11;98637.78;;;20.00;49.58
43298;BME280;28892;55.640;37.532;2023-06-26T00:45:36;98640.69;;;19.93;49.34
43298;BME280;28892;55.640;37.532;2023-06-26T00:48:02;98641.09;;;19.80;49.57
43298;BME280;28892;55.640;37.532;2023-06-26T00:50:31;98644.13;;;19.89;49.57
43298;BME280;28892;55.640;37.532;2023-06-26T00:53:01;98650.28;;;19.84;49.91
43298;BME280;28892;55.640;37.532;2023-06-26T00:55:27;98648.00;;;19.71;49.45
43298;BME280;28892;55.640;37.532;2023-06-26T00:57:54;98647.75;;;19.67;50.07
43298;BME280;28892;55.640;37.532;2023-06-26T01:00:21;98662.53;;;19.69;48.50
43298;BME280;28892;55.640;37.532;2023-06-26T01:02:47;98662.03;;;19.45;50.33
43298;BME280;28892;55.640;37.532;2023-06-26T01:05:13;98655.44;;;19.31;51.29
43298;BME280;28892;55.640;37.532;2023-06-26T01:07:49;98658.78;;;19.16;51.89
43298;BME280;28892;55.640;37.532;2023-06-26T01:10:17;98646.81;;;19.01;51.97
43298;BME280;28892;55.640;37.532;2023-06-26T01:12:45;98650.56;;;19.00;52.11
43298;BME280;28892;55.640;37.532;2023-06-26T01:15:11;98647.88;;;19.00;52.37
43298;BME280;28892;55.640;37.532;2023-06-26T01:17:37;98644.69;;;19.03;52.57
43298;BME280;28892;55.640;37.532;2023-06-26T01:20:06;98644.16;;;19.06;52.83
43298;BME280;28892;55.640;37.532;2023-06-26T01:28:14;98643.91;;;19.30;51.94
43298;BME280;28892;55.640;37.532;2023-06-26T01:30:44;98641.16;;;19.25;52.13
43298;BME280;28892;55.640;37.532;2023-06-26T01:33:12;98644.38;;;19.27;52.31
43298;BME280;28892;55.640;37.532;2023-06-26T01:35:40;98647.38;;;19.31;52.29
43298;BME280;28892;55.640;37.532;2023-06-26T01:38:16;98649.94;;;19.43;52.35
43298;BME280;28892;55.640;37.532;2023-06-26T01:40:43;98642.22;;;19.24;52.65
43298;BME280;28892;55.640;37.532;2023-06-26T01:46:16;98646.75;;;19.23;52.70
43298;BME280;28892;55.640;37.532;2023-06-26T01:48:54;98645.91;;;19.18;53.17
43298;BME280;28892;55.640;37.532;2023-06-26T01:51:31;98648.09;;;18.98;53.78
43298;BME280;28892;55.640;37.532;2023-06-26T01:54:02;98636.22;;;18.72;53.53
43298;BME280;28892;55.640;37.532;2023-06-26T01:56:29;98636.66;;;18.64;54.20
43298;BME280;28892;55.640;37.532;2023-06-26T01:58:56;98634.59;;;18.71;54.07
43298;BME280;28892;55.640;37.532;2023-06-26T02:01:23;98654.16;;;18.89;54.01
43298;BME280;28892;55.640;37.532;2023-06-26T02:03:52;98640.47;;;18.90;54.20
43298;BME280;28892;55.640;37.532;2023-06-26T02:06:18;98638.59;;;18.91;53.54
43298;BME280;28892;55.640;37.532;2023-06-26T02:08:43;98649.50;;;19.01;53.75
43298;BME280;28892;55.640;37.532;2023-06-26T02:11:09;98647.53;;;18.96;54.29
43298;BME280;28892;55.640;37.532;2023-06-26T02:13:35;98642.13;;;18.91;54.82
43298;BME280;28892;55.640;37.532;2023-06-26T02:16:01;98641.22;;;18.85;54.78
43298;BME280;28892;55.640;37.532;2023-06-26T02:18:27;98643.16;;;18.90;54.59
43298;BME280;28892;55.640;37.532;2023-06-26T02:20:53;98642.91;;;18.92;54.73
43298;BME280;28892;55.640;37.532;2023-06-26T02:23:21;98656.06;;;19.10;54.18
43298;BME280;28892;55.640;37.532;2023-06-26T02:25:47;98649.94;;;19.15;54.43
43298;BME280;28892;55.640;37.532;2023-06-26T02:28:12;98652.41;;;19.22;54.05
43298;BME280;28892;55.640;37.532;2023-06-26T02:30:38;98639.72;;;19.17;54.52
43298;BME280;28892;55.640;37.532;2023-06-26T02:33:04;98649.72;;;19.22;54.24
43298;BME280;28892;55.640;37.532;2023-06-26T02:35:30;98645.44;;;19.26;52.81
43298;BME280;28892;55.640;37.532;2023-06-26T02:37:58;98652.81;;;19.36;52.96
43298;BME280;28892;55.640;37.532;2023-06-26T02:40:24;98643.59;;;19.26;53.49
43298;BME280;28892;55.640;37.532;2023-06-26T02:42:51;98652.00;;;19.35;51.24
43298;BME280;28892;55.640;37.532;2023-06-26T02:45:17;98653.28;;;19.27;54.09
43298;BME280;28892;55.640;37.532;2023-06-26T02:47:43;98655.75;;;19.34;53.18
43298;BME280;28892;55.640;37.532;2023-06-26T02:50:11;98654.19;;;19.38;52.24
43298;BME280;28892;55.640;37.532;2023-06-26T02:52:59;98662.34;;;19.49;50.75
43298;BME280;28892;55.640;37.532;2023-06-26T02:55:27;98662.34;;;19.49;50.46
43298;BME280;28892;55.640;37.532;2023-06-26T02:57:53;98652.72;;;19.53;50.93
43298;BME280;28892;55.640;37.532;2023-06-26T03:00:20;98656.56;;;19.62;49.81
43298;BME280;28892;55.640;37.532;2023-06-26T03:02:49;98649.34;;;19.68;48.83
43298;BME280;28892;55.640;37.532;2023-06-26T03:05:17;98652.69;;;19.80;49.59
43298;BME280;28892;55.640;37.532;2023-06-26T03:07:44;98644.34;;;19.82;50.36
43298;BME280;28892;55.640;37.532;2023-06-26T03:10:13;98659.75;;;19.92;50.55
43298;BME280;28892;55.640;37.532;2023-06-26T03:12:39;98645.75;;;19.90;49.67
43298;BME280;28892;55.640;37.532;2023-06-26T03:15:05;98648.88;;;20.09;47.81
43298;BME280;28892;55.640;37.532;2023-06-26T03:17:36;98652.97;;;20.17;47.96
43298;BME280;28892;55.640;37.532;2023-06-26T03:20:06;98651.88;;;20.18;48.17
43298;BME280;28892;55.640;37.532;2023-06-26T03:22:48;98638.97;;;20.20;48.16
43298;BME280;28892;55.640;37.532;2023-06-26T03:25:16;98643.34;;;20.26;48.07
43298;BME280;28892;55.640;37.532;2023-06-26T03:27:42;98635.78;;;20.28;47.63
43298;BME280;28892;55.640;37.532;2023-06-26T03:30:09;98643.41;;;20.42;46.77
43298;BME280;28892;55.640;37.532;2023-06-26T03:32:38;98636.69;;;20.44;47.15
43298;BME280;28892;55.640;37.532;2023-06-26T03:35:04;98642.38;;;20.53;46.31
43298;BME280;28892;55.640;37.532;2023-06-26T03:37:33;98633.16;;;20.38;46.44
43298;BME280;28892;55.640;37.532;2023-06-26T03:40:02;98637.47;;;20.40;46.11
43298;BME280;28892;55.640;37.532;2023-06-26T03:42:37;98633.22;;;20.44;45.23
43298;BME280;28892;55.640;37.532;2023-06-26T03:45:03;98636.19;;;20.52;45.38
43298;BME280;28892;55.640;37.532;2023-06-26T03:47:31;98634.88;;;20.55;46.02
43298;BME280;28892;55.640;37.532;2023-06-26T03:49:57;98640.28;;;20.60;45.03
43298;BME280;28892;55.640;37.532;2023-06-26T03:52:23;98624.41;;;20.64;45.54
43298;BME280;28892;55.640;37.532;2023-06-26T03:54:49;98629.00;;;20.74;43.89
43298;BME280;28892;55.640;37.532;2023-06-26T03:57:16;98628.53;;;20.82;43.72
43298;BME280;28892;55.640;37.532;2023-06-26T03:59:43;98629.09;;;20.89;44.34
43298;BME280;28892;55.640;37.532;2023-06-26T04:02:09;98628.03;;;20.90;43.97
43298;BME280;28892;55.640;37.532;2023-06-26T04:04:35;98629.94;;;21.00;44.24
43298;BME280;28892;55.640;37.532;2023-06-26T04:07:03;98625.63;;;20.99;44.43
43298;BME280;28892;55.640;37.532;2023-06-26T04:09:29;98627.00;;;21.12;44.11
43298;BME280;28892;55.640;37.532;2023-06-26T04:11:55;98623.50;;;21.17;43.69
43298;BME280;28892;55.640;37.532;2023-06-26T04:14:21;98630.53;;;21.28;44.55
43298;BME280;28892;55.640;37.532;2023-06-26T04:16:47;98627.84;;;21.39;44.20
43298;BME280;28892;55.640;37.532;2023-06-26T04:19:13;98642.72;;;21.57;44.30
43298;BME280;28892;55.640;37.532;2023-06-26T04:21:39;98631.09;;;21.61;43.27
43298;BME280;28892;55.640;37.532;2023-06-26T04:24:05;98636.00;;;21.80;42.26
43298;BME280;28892;55.640;37.532;2023-06-26T04:26:31;98625.22;;;21.80;42.62
43298;BME280;28892;55.640;37.532;2023-06-26T04:29:00;98636.28;;;21.84;42.26
43298;BME280;28892;55.640;37.532;2023-06-26T04:31:29;98631.13;;;21.87;41.99
43298;BME280;28892;55.640;37.532;2023-06-26T04:33:54;98640.56;;;22.00;42.52
43298;BME280;28892;55.640;37.532;2023-06-26T04:36:21;98635.97;;;22.11;42.72
43298;BME280;28892;55.640;37.532;2023-06-26T04:38:50;98629.16;;;22.35;41.46
43298;BME280;28892;55.640;37.532;2023-06-26T04:41:18;98633.97;;;22.48;41.13
43298;BME280;28892;55.640;37.532;2023-06-26T04:43:44;98637.22;;;22.55;41.27
43298;BME280;28892;55.640;37.532;2023-06-26T04:46:09;98639.31;;;22.74;41.14
43298;BME280;28892;55.640;37.532;2023-06-26T04:48:35;98630.59;;;22.87;40.14
43298;BME280;28892;55.640;37.532;2023-06-26T04:51:01;98633.78;;;23.00;40.49
43298;BME280;28892;55.640;37.532;2023-06-26T04:53:27;98640.41;;;23.28;40.26
43298;BME280;28892;55.640;37.532;2023-06-26T04:55:53;98627.31;;;23.46;39.43
43298;BME280;28892;55.640;37.532;2023-06-26T04:58:44;98632.31;;;23.93;40.71
43298;BME280;28892;55.640;37.532;2023-06-26T05:01:15;98624.25;;;23.88;39.68
43298;BME280;28892;55.640;37.532;2023-06-26T05:03:46;98627.41;;;24.00;39.96
43298;BME280;28892;55.640;37.532;2023-06-26T05:06:35;98627.06;;;24.12;39.28
43298;BME280;28892;55.640;37.532;2023-06-26T05:09:01;98616.56;;;24.30;38.35
43298;BME280;28892;55.640;37.532;2023-06-26T05:11:27;98631.16;;;24.34;38.71
43298;BME280;28892;55.640;37.532;2023-06-26T05:13:53;98631.16;;;24.34;38.79
43298;BME280;28892;55.640;37.532;2023-06-26T05:16:19;98622.31;;;24.23;39.00
43298;BME280;28892;55.640;37.532;2023-06-26T05:22:58;98622.59;;;24.46;38.64
43298;BME280;28892;55.640;37.532;2023-06-26T05:25:24;98623.53;;;24.60;37.96
43298;BME280;28892;55.640;37.532;2023-06-26T05:27:50;98630.50;;;24.66;38.06
43298;BME280;28892;55.640;37.532;2023-06-26T05:30:16;98639.50;;;24.62;37.04
43298;BME280;28892;55.640;37.532;2023-06-26T05:32:46;98625.16;;;24.37;38.08
43298;BME280;28892;55.640;37.532;2023-06-26T05:35:13;98620.28;;;24.58;37.63
43298;BME280;28892;55.640;37.532;2023-06-26T05:37:40;98613.88;;;24.73;36.58
43298;BME280;28892;55.640;37.532;2023-06-26T05:40:07;98626.03;;;24.76;37.08
43298;BME280;28892;55.640;37.532;2023-06-26T05:42:34;98630.19;;;24.92;37.52
43298;BME280;28892;55.640;37.532;2023-06-26T05:45:04;98622.63;;;25.08;36.82
43298;BME280;28892;55.640;37.532;2023-06-26T05:47:30;98619.44;;;25.25;36.37
43298;BME280;28892;55.640;37.532;2023-06-26T05:49:56;98620.34;;;25.35;35.61
43298;BME280;28892;55.640;37.532;2023-06-26T05:52:22;98617.13;;;25.33;35.05
43298;BME280;28892;55.640;37.532;2023-06-26T05:54:56;98619.09;;;25.46;35.53
43298;BME280;28892;55.640;37.532;2023-06-26T05:57:29;98624.91;;;25.39;35.44
43298;BME280;28892;55.640;37.532;2023-06-26T05:59:56;98627.25;;;25.46;35.44
43298;BME280;28892;55.640;37.532;2023-06-26T06:02:22;98624.94;;;25.59;35.58
43298;BME280;28892;55.640;37.532;2023-06-26T06:04:54;98620.88;;;25.56;34.66
43298;BME280;28892;55.640;37.532;2023-06-26T06:07:20;98617.34;;;25.56;34.35
43298;BME280;28892;55.640;37.532;2023-06-26T06:09:49;98618.25;;;25.51;34.06
43298;BME280;28892;55.640;37.532;2023-06-26T06:12:17;98622.88;;;25.50;34.87
43298;BME280;28892;55.640;37.532;2023-06-26T06:14:43;98608.75;;;25.67;33.54
43298;BME280;28892;55.640;37.532;2023-06-26T06:17:10;98616.06;;;25.53;35.31
43298;BME280;28892;55.640;37.532;2023-06-26T06:19:38;98623.13;;;25.68;34.49
43298;BME280;28892;55.640;37.532;2023-06-26T06:22:20;98622.09;;;25.97;34.29
43298;BME280;28892;55.640;37.532;2023-06-26T06:25:11;98622.19;;;26.06;34.68
43298;BME280;28892;55.640;37.532;2023-06-26T06:28:25;98619.44;;;26.25;33.03
43298;BME280;28892;55.640;37.532;2023-06-26T06:42:00;98622.63;;;26.83;32.39
43298;BME280;28892;55.640;37.532;2023-06-26T06:44:32;98607.16;;;26.56;32.86
43298;BME280;28892;55.640;37.532;2023-06-26T06:47:10;98621.66;;;26.65;32.52
43298;BME280;28892;55.640;37.532;2023-06-26T06:50:08;98609.50;;;26.85;32.35
43298;BME280;28892;55.640;37.532;2023-06-26T07:02:21;98595.81;;;27.50;30.98
43298;BME280;28892;55.640;37.532;2023-06-26T07:18:36;98602.56;;;27.53;31.41
43298;BME280;28892;55.640;37.532;2023-06-26T07:30:43;98595.81;;;27.50;30.43
43298;BME280;28892;55.640;37.532;2023-06-26T07:33:35;98608.81;;;27.30;29.59
43298;BME280;28892;55.640;37.532;2023-06-26T07:36:04;98600.94;;;27.29;29.10
43298;BME280;28892;55.640;37.532;2023-06-26T07:38:33;98593.78;;;27.33;29.45
43298;BME280;28892;55.640;37.532;2023-06-26T07:41:21;98597.19;;;27.16;29.29
43298;BME280;28892;55.640;37.532;2023-06-26T07:44:01;98590.34;;;27.64;27.74
43298;BME280;28892;55.640;37.532;2023-06-26T07:47:00;98589.75;;;27.76;27.90
43298;BME280;28892;55.640;37.532;2023-06-26T07:49:57;98594.28;;;27.89;28.69
43298;BME280;28892;55.640;37.532;2023-06-26T07:52:26;98584.97;;;27.82;28.87
43298;BME280;28892;55.640;37.532;2023-06-26T07:54:52;98578.63;;;27.95;27.89
43298;BME280;28892;55.640;37.532;2023-06-26T07:57:21;98589.47;;;27.86;27.46
43298;BME280;28892;55.640;37.532;2023-06-26T07:59:56;98586.03;;;28.03;26.57
43298;BME280;28892;55.640;37.532;2023-06-26T08:02:23;98583.28;;;27.95;27.36
43298;BME280;28892;55.640;37.532;2023-06-26T08:08:32;98576.03;;;28.22;28.19
43298;BME280;28892;55.640;37.532;2023-06-26T08:11:11;98572.22;;;28.32;26.96
43298;BME280;28892;55.640;37.532;2023-06-26T08:13:42;98583.28;;;27.95;28.63
43298;BME280;28892;55.640;37.532;2023-06-26T08:16:08;98570.09;;;28.20;27.19
43298;BME280;28892;55.640;37.532;2023-06-26T08:18:34;98561.69;;;28.56;27.90
43298;BME280;28892;55.640;37.532;2023-06-26T08:21:00;98577.81;;;28.84;26.99
43298;BME280;28892;55.640;37.532;2023-06-26T08:23:34;98577.50;;;28.95;26.43
43298;BME280;28892;55.640;37.532;2023-06-26T08:26:22;98583.28;;;29.11;26.52
43298;BME280;28892;55.640;37.532;2023-06-26T08:28:57;98585.03;;;28.98;26.38
43298;BME280;28892;55.640;37.532;2023-06-26T08:31:34;98578.00;;;28.39;27.12
43298;BME280;28892;55.640;37.532;2023-06-26T08:34:09;98581.44;;;28.13;27.13
43298;BME280;28892;55.640;37.532;2023-06-26T08:36:43;98590.19;;;27.46;28.28
43298;BME280;28892;55.640;37.532;2023-06-26T08:39:13;98580.66;;;27.35;28.28
43298;BME280;28892;55.640;37.532;2023-06-26T08:41:44;98581.78;;;27.34;28.03
43298;BME280;28892;55.640;37.532;2023-06-26T08:44:36;98584.03;;;26.81;28.75
43298;BME280;28892;55.640;37.532;2023-06-26T08:47:04;98577.91;;;26.75;29.37
43298;BME280;28892;55.640;37.532;2023-06-26T08:52:31;98584.69;;;26.50;30.51
43298;BME280;28892;55.640;37.532;2023-06-26T08:55:10;98579.59;;;26.20;30.18
43298;BME280;28892;55.640;37.532;2023-06-26T08:57:40;98575.59;;;25.85;30.93
43298;BME280;28892;55.640;37.532;2023-06-26T09:00:07;98573.41;;;25.53;30.92
43298;BME280;28892;55.640;37.532;2023-06-26T09:02:36;98575.75;;;25.41;31.57
43298;BME280;28892;55.640;37.532;2023-06-26T09:05:02;98568.53;;;25.17;31.84
43298;BME280;28892;55.640;37.532;2023-06-26T09:07:30;98582.53;;;25.05;32.16
43298;BME280;28892;55.640;37.532;2023-06-26T09:09:58;98569.34;;;24.99;32.39
43298;BME280;28892;55.640;37.532;2023-06-26T09:12:27;98578.97;;;24.91;32.38
43298;BME280;28892;55.640;37.532;2023-06-26T09:14:54;98579.59;;;25.02;32.54
43298;BME280;28892;55.640;37.532;2023-06-26T09:17:33;98580.19;;;24.99;32.99
43298;BME280;28892;55.640;37.532;2023-06-26T09:20:05;98569.00;;;24.86;32.92
43298;BME280;28892;55.640;37.532;2023-06-26T09:22:47;98571.19;;;24.84;32.62
43298;BME280;28892;55.640;37.532;2023-06-26T09:25:14;98579.25;;;24.65;33.41
43298;BME280;28892;55.640;37.532;2023-06-26T09:27:42;98575.47;;;24.66;33.21
43298;BME280;28892;55.640;37.532;2023-06-26T09:30:09;98570.78;;;24.72;32.72
43298;BME280;28892;55.640;37.532;2023-06-26T09:32:36;98579.44;;;24.74;32.53
43298;BME280;28892;55.640;37.532;2023-06-26T09:35:04;98579.09;;;24.80;32.89
43298;BME280;28892;55.640;37.532;2023-06-26T09:37:32;98580.94;;;24.85;33.27
43298;BME280;28892;55.640;37.532;2023-06-26T09:40:16;98584.97;;;24.88;33.81
43298;BME280;28892;55.640;37.532;2023-06-26T09:42:52;98580.72;;;25.01;33.62
43298;BME280;28892;55.640;37.532;2023-06-26T09:45:27;98576.53;;;24.89;34.59
43298;BME280;28892;55.640;37.532;2023-06-26T09:48:00;98588.06;;;24.57;35.80
43298;BME280;28892;55.640;37.532;2023-06-26T09:51:25;98590.56;;;24.28;36.76
43298;BME280;28892;55.640;37.532;2023-06-26T09:54:08;98586.34;;;24.17;37.23
43298;BME280;28892;55.640;37.532;2023-06-26T09:56:35;98597.25;;;24.12;36.64
43298;BME280;28892;55.640;37.532;2023-06-26T09:59:03;98586.34;;;23.88;36.17
43298;BME280;28892;55.640;37.532;2023-06-26T10:01:33;98589.19;;;23.72;36.45
43298;BME280;28892;55.640;37.532;2023-06-26T10:04:03;98584.69;;;23.62;37.03
43298;BME280;28892;55.640;37.532;2023-06-26T10:06:46;98592.38;;;23.50;38.62
43298;BME280;28892;55.640;37.532;2023-06-26T10:09:17;98576.53;;;23.33;38.69
43298;BME280;28892;55.640;37.532;2023-06-26T10:11:57;98562.75;;;23.24;38.70
43298;BME280;28892;55.640;37.532;2023-06-26T10:14:27;98562.16;;;23.37;36.56
43298;BME280;28892;55.640;37.532;2023-06-26T10:16:58;98564.81;;;23.42;36.43
43298;BME280;28892;55.640;37.532;2023-06-26T10:19:31;98556.34;;;23.54;35.22
43298;BME280;28892;55.640;37.532;2023-06-26T10:22:02;98547.28;;;23.69;34.90
43298;BME280;28892;55.640;37.532;2023-06-26T10:24:41;98555.75;;;23.87;35.71
43298;BME280;28892;55.640;37.532;2023-06-26T10:27:23;98556.41;;;24.03;34.41
43298;BME280;28892;55.640;37.532;2023-06-26T10:29:54;98554.78;;;24.02;34.56
43298;BME280;28892;55.640;37.532;2023-06-26T10:32:26;98549.56;;;24.11;34.36
43298;BME280;28892;55.640;37.532;2023-06-26T10:34:53;98562.56;;;24.58;34.09
43298;BME280;28892;55.640;37.532;2023-06-26T10:37:21;98545.19;;;24.15;33.79
43298;BME280;28892;55.640;37.532;2023-06-26T10:39:50;98556.91;;;24.10;35.22
43298;BME280;28892;55.640;37.532;2023-06-26T10:42:20;98556.97;;;24.00;36.37
43298;BME280;28892;55.640;37.532;2023-06-26T10:44:54;98536.78;;;23.87;36.89
43298;BME280;28892;55.640;37.532;2023-06-26T10:47:51;98537.84;;;24.16;36.65
43298;BME280;28892;55.640;37.532;2023-06-26T10:56:07;98537.22;;;24.24;37.88
43298;BME280;28892;55.640;37.532;2023-06-26T10:58:44;98530.09;;;24.09;37.82
43298;BME280;28892;55.640;37.532;2023-06-26T11:01:21;98535.97;;;24.16;36.94
43298;BME280;28892;55.640;37.532;2023-06-26T11:04:05;98529.66;;;24.45;37.11
43298;BME280;28892;55.640;37.532;2023-06-26T11:06:32;98527.50;;;24.42;36.23
43298;BME280;28892;55.640;37.532;2023-06-26T11:09:11;98526.88;;;24.50;36.30
43298;BME280;28892;55.640;37.532;2023-06-26T11:14:26;98522.03;;;24.66;34.72
43298;BME280;28892;55.640;37.532;2023-06-26T11:16:55;98515.38;;;24.59;35.94
43298;BME280;28892;55.640;37.532;2023-06-26T11:19:21;98509.22;;;24.53;35.44
43298;BME280;28892;55.640;37.532;2023-06-26T11:21:47;98515.09;;;24.60;36.16
43298;BME280;28892;55.640;37.532;2023-06-26T11:24:21;98515.66;;;24.76;35.08
43298;BME280;28892;55.640;37.532;2023-06-26T11:26:59;98512.91;;;25.01;33.83
43298;BME280;28892;55.640;37.532;2023-06-26T11:29:33;98518.47;;;25.43;33.82
43298;BME280;28892;55.640;37.532;2023-06-26T11:32:06;98520.28;;;26.22;31.77
43298;BME280;28892;55.640;37.532;2023-06-26T11:38:13;98497.94;;;27.77;30.54
43298;BME280;28892;55.640;37.532;2023-06-26T11:41:17;98500.97;;;27.43;30.29
43298;BME280;28892;55.640;37.532;2023-06-26T11:43:51;98488.81;;;27.18;30.23
43298;BME280;28892;55.640;37.532;2023-06-26T11:46:21;98489.34;;;27.29;29.97
43298;BME280;28892;55.640;37.532;2023-06-26T11:48:50;98489.47;;;27.24;28.99
43298;BME280;28892;55.640;37.532;2023-06-26T11:51:16;98489.72;;;27.13;29.42
43298;BME280;28892;55.640;37.532;2023-06-26T11:54:04;98483.78;;;27.34;28.88
43298;BME280;28892;55.640;37.532;2023-06-26T11:56:33;98477.28;;;27.21;29.08
43298;BME280;28892;55.640;37.532;2023-06-26T11:59:32;98470.56;;;26.96;29.48
43298;BME280;28892;55.640;37.532;2023-06-26T12:02:11;98471.19;;;26.92;29.20
43298;BME280;28892;55.640;37.532;2023-06-26T12:04:41;98469.66;;;26.86;29.78
43298;BME280;28892;55.640;37.532;2023-06-26T12:07:08;98466.88;;;26.77;29.96
43298;BME280;28892;55.640;37.532;2023-06-26T12:09:43;98465.56;;;26.75;29.67
43298;BME280;28892;55.640;37.532;2023-06-26T12:12:17;98460.69;;;26.63;30.36
43298;BME280;28892;55.640;37.532;2023-06-26T12:14:51;98462.56;;;26.76;29.30
43298;BME280;28892;55.640;37.532;2023-06-26T12:17:26;98462.84;;;26.75;29.88
43298;BME280;28892;55.640;37.532;2023-06-26T12:25:12;98455.69;;;27.25;29.20
43298;BME280;28892;55.640;37.532;2023-06-26T12:41:15;98431.78;;;26.67;29.28
43298;BME280;28892;55.640;37.532;2023-06-26T12:50:45;98428.38;;;26.25;29.96
43298;BME280;28892;55.640;37.532;2023-06-26T12:53:48;98437.63;;;26.09;29.56
43298;BME280;28892;55.640;37.532;2023-06-26T12:56:30;98434.56;;;25.88;30.25
43298;BME280;28892;55.640;37.532;2023-06-26T12:59:02;98433.44;;;25.61;29.88
43298;BME280;28892;55.640;37.532;2023-06-26T13:01:29;98432.03;;;25.64;30.22
43298;BME280;28892;55.640;37.532;2023-06-26T13:03:57;98442.81;;;25.55;30.54
43298;BME280;28892;55.640;37.532;2023-06-26T13:06:23;98449.84;;;25.56;30.20
43298;BME280;28892;55.640;37.532;2023-06-26T13:08:50;98437.59;;;25.59;30.04
43298;BME280;28892;55.640;37.532;2023-06-26T13:11:19;98439.59;;;25.53;29.99
43298;BME280;28892;55.640;37.532;2023-06-26T13:13:51;98430.53;;;25.72;29.81
43298;BME280;28892;55.640;37.532;2023-06-26T13:16:17;98428.84;;;25.76;29.01
43298;BME280;28892;55.640;37.532;2023-06-26T13:18:45;98421.88;;;25.84;28.35
43298;BME280;28892;55.640;37.532;2023-06-26T13:21:11;98412.84;;;25.74;28.56
43298;BME280;28892;55.640;37.532;2023-06-26T13:23:41;98413.13;;;25.87;28.88
43298;BME280;28892;55.640;37.532;2023-06-26T13:26:10;98410.72;;;25.85;29.44
43298;BME280;28892;55.640;37.532;2023-06-26T13:28:46;98423.00;;;25.97;29.49
43298;BME280;28892;55.640;37.532;2023-06-26T13:31:18;98419.44;;;25.96;28.80
43298;BME280;28892;55.640;37.532;2023-06-26T13:33:44;98409.69;;;25.95;28.72
43298;BME280;28892;55.640;37.532;2023-06-26T13:36:14;98406.00;;;25.91;28.98
43298;BME280;28892;55.640;37.532;2023-06-26T13:38:45;98406.47;;;25.93;29.00
43298;BME280;28892;55.640;37.532;2023-06-26T13:41:23;98405.16;;;26.04;28.97
43298;BME280;28892;55.640;37.532;2023-06-26T13:43:49;98387.06;;;26.00;28.44
43298;BME280;28892;55.640;37.532;2023-06-26T13:46:18;98387.94;;;26.09;28.93
43298;BME280;28892;55.640;37.532;2023-06-26T13:48:57;98402.81;;;26.26;28.91
43298;BME280;28892;55.640;37.532;2023-06-26T13:51:23;98388.31;;;26.30;28.57
43298;BME280;28892;55.640;37.532;2023-06-26T13:53:49;98394.75;;;26.34;28.77
43298;BME280;28892;55.640;37.532;2023-06-26T13:56:15;98398.00;;;26.22;28.65
43298;BME280;28892;55.640;37.532;2023-06-26T13:58:41;98400.00;;;26.17;28.66
43298;BME280;28892;55.640;37.532;2023-06-26T14:01:07;98385.78;;;26.34;29.03
43298;BME280;28892;55.640;37.532;2023-06-26T14:03:32;98379.91;;;26.41;28.71
43298;BME280;28892;55.640;37.532;2023-06-26T14:05:58;98376.88;;;26.65;28.90
43298;BME280;28892;55.640;37.532;2023-06-26T14:08:24;98386.34;;;26.45;28.51
43298;BME280;28892;55.640;37.532;2023-06-26T14:10:50;98380.28;;;26.25;28.84
43298;BME280;28892;55.640;37.532;2023-06-26T14:13:18;98380.47;;;26.15;28.67
43298;BME280;28892;55.640;37.532;2023-06-26T14:15:43;98382.41;;;26.00;28.05
43298;BME280;28892;55.640;37.532;2023-06-26T14:18:12;98380.09;;;25.93;28.10
43298;BME280;28892;55.640;37.532;2023-06-26T14:20:40;98377.19;;;25.90;27.68
43298;BME280;28892;55.640;37.532;2023-06-26T14:23:06;98383.94;;;25.78;28.14
43298;BME280;28892;55.640;37.532;2023-06-26T14:25:32;98374.41;;;25.67;28.36
43298;BME280;28892;55.640;37.532;2023-06-26T14:27:58;98381.66;;;25.44;28.48
43298;BME280;28892;55.640;37.532;2023-06-26T14:30:30;98372.69;;;25.29;28.07
43298;BME280;28892;55.640;37.532;2023-06-26T14:32:56;98368.94;;;25.11;28.45
43298;BME280;28892;55.640;37.532;2023-06-26T14:35:35;98366.63;;;25.04;29.71
43298;BME280;28892;55.640;37.532;2023-06-26T14:38:45;98370.56;;;25.26;29.86
43298;BME280;28892;55.640;37.532;2023-06-26T14:41:20;98372.81;;;25.38;28.50
43298;BME280;28892;55.640;37.532;2023-06-26T14:43:46;98360.34;;;25.37;28.46
43298;BME280;28892;55.640;37.532;2023-06-26T14:46:18;98364.25;;;25.45;29.74
43298;BME280;28892;55.640;37.532;2023-06-26T14:48:49;98360.06;;;25.52;28.83
43298;BME280;28892;55.640;37.532;2023-06-26T14:51:17;98359.22;;;25.66;28.48